createdAt,value
2022-10-22T00:02:28.211Z,8.65
2022-10-22T00:07:32.066Z,8.55
2022-10-22T00:12:35.582Z,8.57
2022-10-22T00:17:39.306Z,8.55
2022-10-22T00:22:43.147Z,8.62
2022-10-22T00:27:46.190Z,8.49
2022-10-22T00:32:50.103Z,8.56
2022-10-22T00:37:54.142Z,8.57
2022-10-22T00:42:58.003Z,8.52
2022-10-22T00:48:17.850Z,8.34
2022-10-22T00:53:43.280Z,8.35
2022-10-22T01:04:15.743Z,8.23
2022-10-22T01:09:35.807Z,8.19
2022-10-22T01:14:53.389Z,8.20
2022-10-22T01:20:41.782Z,8.07
2022-10-22T01:26:06.667Z,8.23
2022-10-22T01:31:12.999Z,8.24
2022-10-22T01:36:18.563Z,8.22
2022-10-22T01:41:22.089Z,8.24
2022-10-22T01:46:29.932Z,8.14
2022-10-22T01:52:28.914Z,8.11
2022-10-22T01:58:10.816Z,8.11
2022-10-22T02:03:23.940Z,8.08
2022-10-22T02:08:36.341Z,8.10
2022-10-22T02:13:47.495Z,8.10
2022-10-22T02:18:55.344Z,8.06
2022-10-22T02:23:59.500Z,8.06
2022-10-22T02:29:20.096Z,8.12
2022-10-22T02:34:27.835Z,8.17
2022-10-22T02:39:32.744Z,8.20
2022-10-22T02:44:36.350Z,8.30
2022-10-22T02:49:39.321Z,8.24
2022-10-22T02:54:43.177Z,8.28
2022-10-22T02:59:46.619Z,8.26
2022-10-22T03:04:50.157Z,8.21
2022-10-22T03:09:53.529Z,8.18
2022-10-22T03:14:56.526Z,8.16
2022-10-22T03:20:00.059Z,8.22
2022-10-22T03:25:10.618Z,8.22
2022-10-22T03:30:14.539Z,8.24
2022-10-22T03:35:17.527Z,8.19
2022-10-22T03:40:21.015Z,8.03
2022-10-22T03:45:24.694Z,7.97
2022-10-22T03:50:27.745Z,8.03
2022-10-22T03:55:31.811Z,7.92
2022-10-22T04:00:36.485Z,7.93
2022-10-22T04:05:39.510Z,8.01
2022-10-22T04:10:42.844Z,8.18
2022-10-22T04:20:54.807Z,8.18
2022-10-22T04:26:00.023Z,8.13
2022-10-22T04:31:09.984Z,8.17
2022-10-22T04:36:17.423Z,8.40
2022-10-22T04:41:23.156Z,8.26
2022-10-22T04:46:28.660Z,8.12
2022-10-22T04:51:33.647Z,7.84
2022-10-22T04:56:37.001Z,7.86
2022-10-22T05:01:43.590Z,7.80
2022-10-22T05:06:47.237Z,7.82
2022-10-22T05:11:53.114Z,7.83
2022-10-22T05:16:56.182Z,7.99
2022-10-22T05:22:02.275Z,8.03
2022-10-22T05:27:05.894Z,8.21
2022-10-22T05:32:09.906Z,8.29
2022-10-22T05:37:13.757Z,8.39
2022-10-22T05:42:17.667Z,8.53
2022-10-22T05:47:21.380Z,8.79
2022-10-22T05:52:25.015Z,9.03
2022-10-22T05:57:28.637Z,9.45
2022-10-22T06:02:32.438Z,9.90
2022-10-22T06:07:36.783Z,10.54
2022-10-22T06:12:40.917Z,12.19
2022-10-22T06:17:48.147Z,17.87
2022-10-22T06:22:51.454Z,21.36
2022-10-22T06:27:54.384Z,22.82
2022-10-22T06:32:57.808Z,24.34
2022-10-22T06:38:00.809Z,25.82
2022-10-22T06:43:03.984Z,25.68
2022-10-22T06:48:07.554Z,26.67
2022-10-22T06:53:10.561Z,28.03
2022-10-22T06:58:13.568Z,27.86
2022-10-22T07:03:17.299Z,27.73
2022-10-22T07:08:20.668Z,26.16
2022-10-22T07:13:24.722Z,26.44
2022-10-22T07:18:28.490Z,26.93
2022-10-22T07:23:32.645Z,25.95
2022-10-22T07:28:39.087Z,26.48
2022-10-22T07:33:42.200Z,27.45
2022-10-22T07:38:50.449Z,26.75
2022-10-22T07:43:53.585Z,26.95
2022-10-22T07:48:56.910Z,27.34
2022-10-22T07:54:00.217Z,28.50
2022-10-22T07:59:03.288Z,29.08
2022-10-22T08:04:08.560Z,28.45
2022-10-22T08:09:12.560Z,27.75
2022-10-22T08:14:16.061Z,28.88
2022-10-22T08:19:21.477Z,28.83
2022-10-22T08:24:27.266Z,28.86
2022-10-22T08:29:30.790Z,28.32
2022-10-22T08:34:34.577Z,28.35
2022-10-22T08:39:37.626Z,27.27
2022-10-22T08:44:59.600Z,27.57
2022-10-22T08:50:03.537Z,28.52
2022-10-22T08:55:15.265Z,27.11
2022-10-22T09:00:29.048Z,27.41
2022-10-22T09:05:42.721Z,26.53
2022-10-22T09:10:53.519Z,27.05
2022-10-22T09:16:02.352Z,27.40
2022-10-22T09:21:44.376Z,27.65
2022-10-22T09:26:47.856Z,26.21
2022-10-22T09:31:51.514Z,25.61
2022-10-22T09:37:00.051Z,26.62
2022-10-22T09:42:03.198Z,26.87
2022-10-22T09:47:07.961Z,27.33
2022-10-22T09:52:28.859Z,26.78
2022-10-22T09:57:33.275Z,26.72
2022-10-22T10:02:42.597Z,26.85
2022-10-22T10:07:47.663Z,26.68
2022-10-22T10:13:02.288Z,26.29
2022-10-22T10:18:18.569Z,26.67
2022-10-22T10:23:49.322Z,25.77
2022-10-22T10:29:12.866Z,25.53
2022-10-22T10:34:34.597Z,25.73
2022-10-22T10:40:22.086Z,25.24
2022-10-22T10:45:55.703Z,24.34
2022-10-22T10:51:24.213Z,25.22
2022-10-22T10:56:34.464Z,24.83
2022-10-22T11:02:10.876Z,24.71
2022-10-22T11:07:34.158Z,25.00
2022-10-22T11:12:45.765Z,24.74
2022-10-22T11:17:50.724Z,25.02
2022-10-22T11:23:22.038Z,24.78
2022-10-22T11:28:31.496Z,24.83
2022-10-22T11:34:05.150Z,25.27
2022-10-22T11:39:43.713Z,25.83
2022-10-22T11:45:29.055Z,25.89
2022-10-22T11:50:51.109Z,25.92
2022-10-22T11:56:00.012Z,26.93
2022-10-22T12:01:09.292Z,26.64
2022-10-22T12:06:16.218Z,27.85
2022-10-22T12:11:30.090Z,27.28
2022-10-22T12:16:54.623Z,27.32
2022-10-22T12:22:14.985Z,27.53
2022-10-22T12:27:24.879Z,27.24
2022-10-22T12:32:37.217Z,27.42
2022-10-22T12:37:40.903Z,27.13
2022-10-22T12:42:57.329Z,27.22
2022-10-22T12:48:06.828Z,27.28
2022-10-22T12:53:23.203Z,26.55
2022-10-22T12:58:29.883Z,26.77
2022-10-22T13:03:38.566Z,26.55
2022-10-22T13:08:42.227Z,27.32
2022-10-22T13:13:46.133Z,27.18
2022-10-22T13:18:50.064Z,27.20
2022-10-22T13:24:17.485Z,27.33
2022-10-22T13:29:23.106Z,26.47
2022-10-22T13:34:27.151Z,26.83
2022-10-22T13:39:30.209Z,26.86
2022-10-22T13:44:33.698Z,26.78
2022-10-22T13:49:37.120Z,27.36
2022-10-22T13:54:40.793Z,26.73
2022-10-22T13:59:43.816Z,27.74
2022-10-22T14:04:46.988Z,28.14
2022-10-22T14:09:50.085Z,27.64
2022-10-22T14:14:53.156Z,27.22
2022-10-22T14:19:56.212Z,26.83
2022-10-22T14:24:59.672Z,27.99
2022-10-22T14:30:02.753Z,26.86
2022-10-22T14:35:06.604Z,27.81
2022-10-22T14:40:14.535Z,26.86
2022-10-22T14:45:23.827Z,27.54
2022-10-22T14:50:27.016Z,27.70
2022-10-22T14:55:30.806Z,27.24
2022-10-22T15:00:36.929Z,27.16
2022-10-22T15:05:45.168Z,26.50
2022-10-22T15:11:08.458Z,25.65
2022-10-22T15:16:13.678Z,24.95
2022-10-22T15:21:20.466Z,24.45
2022-10-22T15:26:23.632Z,23.92
2022-10-22T15:31:55.404Z,23.26
2022-10-22T15:37:00.891Z,22.24
2022-10-22T15:42:04.355Z,21.37
2022-10-22T15:47:08.533Z,20.31
2022-10-22T15:52:11.701Z,19.77
2022-10-22T15:57:14.749Z,19.15
2022-10-22T16:02:17.853Z,18.71
2022-10-22T16:07:23.983Z,18.38
2022-10-22T16:12:28.425Z,17.81
2022-10-22T16:17:31.802Z,17.22
2022-10-22T16:22:35.511Z,16.70
2022-10-22T16:27:39.552Z,16.33
2022-10-22T16:32:42.790Z,16.18
2022-10-22T16:37:46.944Z,15.89
2022-10-22T16:42:49.972Z,15.61
2022-10-22T16:47:53.394Z,15.27
2022-10-22T16:52:58.329Z,15.26
2022-10-22T16:58:02.455Z,15.10
2022-10-22T17:03:07.907Z,14.94
2022-10-22T17:08:11.940Z,14.79
2022-10-22T17:13:16.668Z,14.57
2022-10-22T17:18:20.812Z,14.29
2022-10-22T17:23:25.364Z,14.11
2022-10-22T17:28:33.109Z,13.93
2022-10-22T17:33:37.316Z,13.79
2022-10-22T17:38:41.971Z,13.64
2022-10-22T17:48:55.346Z,13.26
2022-10-22T17:53:59.451Z,13.14
2022-10-22T17:59:03.333Z,13.07
2022-10-22T18:04:08.659Z,13.00
2022-10-22T18:09:18.204Z,12.91
2022-10-22T18:14:23.734Z,12.69
2022-10-22T18:19:26.819Z,12.74
2022-10-22T18:24:30.386Z,12.56
2022-10-22T18:29:33.384Z,12.37
2022-10-22T18:34:37.794Z,12.44
2022-10-22T18:39:41.217Z,12.38
2022-10-22T18:44:44.713Z,12.30
2022-10-22T18:49:48.900Z,12.13
2022-10-22T18:54:52.319Z,12.18
2022-10-22T18:59:58.580Z,12.12
2022-10-22T19:05:03.197Z,12.02
2022-10-22T19:10:06.934Z,12.00
2022-10-22T19:15:11.069Z,11.97
2022-10-22T19:20:14.023Z,11.91
2022-10-22T19:25:17.497Z,11.75
2022-10-22T19:30:20.703Z,11.72
2022-10-22T19:35:24.232Z,11.60
2022-10-22T19:40:28.602Z,11.56
2022-10-22T19:45:32.199Z,11.41
2022-10-22T19:50:35.866Z,11.48
2022-10-22T19:55:46.040Z,11.49
2022-10-22T20:00:49.383Z,11.43
2022-10-22T20:05:53.295Z,11.41
2022-10-22T20:10:56.242Z,11.38
2022-10-22T20:16:00.768Z,11.34
2022-10-22T20:21:07.689Z,11.22
2022-10-22T20:26:11.284Z,11.07
2022-10-22T20:31:19.265Z,11.09
2022-10-22T20:36:24.436Z,10.98
2022-10-22T20:41:28.758Z,10.93
2022-10-22T20:46:33.156Z,10.76
2022-10-22T20:51:37.494Z,10.84
2022-10-22T20:56:42.476Z,11.02
2022-10-22T21:01:51.100Z,11.06
2022-10-22T21:06:55.768Z,11.02
2022-10-22T21:12:03.473Z,10.95
2022-10-22T21:17:08.385Z,10.88
2022-10-22T21:22:11.364Z,10.81
2022-10-22T21:27:14.903Z,10.80
2022-10-22T21:32:18.134Z,10.76
2022-10-22T21:37:23.241Z,10.72
2022-10-22T21:42:26.646Z,10.71
2022-10-22T21:47:29.649Z,10.75
2022-10-22T21:52:33.884Z,10.70
2022-10-22T21:57:37.458Z,10.67
2022-10-22T22:02:41.401Z,10.69
2022-10-22T22:07:44.985Z,10.51
2022-10-22T22:12:52.485Z,10.55
2022-10-22T22:17:55.528Z,10.66
2022-10-22T22:22:59.176Z,10.63
2022-10-22T22:28:02.645Z,10.54
2022-10-22T22:33:05.781Z,10.57
2022-10-22T22:38:09.471Z,10.58
2022-10-22T22:43:12.668Z,10.55
2022-10-22T22:48:16.614Z,10.60
2022-10-22T22:53:19.608Z,10.47
2022-10-22T22:58:23.664Z,10.54
2022-10-22T23:03:26.688Z,10.53
2022-10-22T23:08:30.751Z,10.45
2022-10-22T23:13:34.525Z,10.31
2022-10-22T23:18:38.164Z,9.93
2022-10-22T23:23:46.115Z,10.18
2022-10-22T23:28:49.812Z,10.14
2022-10-22T23:33:52.953Z,10.14
2022-10-22T23:38:56.330Z,10.23
2022-10-22T23:44:00.258Z,10.26
2022-10-22T23:49:03.800Z,10.28
2022-10-22T23:54:11.991Z,10.27
2022-10-22T23:59:16.100Z,10.40
